createdAt,value
2023-04-25T00:00:08.461Z,5.34
2023-04-25T00:03:17.335Z,5.42
2023-04-25T00:06:22.806Z,5.23
2023-04-25T00:09:30.167Z,5.16
2023-04-25T00:12:35.365Z,5.15
2023-04-25T00:15:42.799Z,5.11
2023-04-25T00:18:52.388Z,5.22
2023-04-25T00:21:57.439Z,5.12
2023-04-25T00:25:04.678Z,5.08
2023-04-25T00:28:11.476Z,5.13
2023-04-25T00:31:16.812Z,5.10
2023-04-25T00:34:22.090Z,5.12
2023-04-25T00:37:27.236Z,5.08
2023-04-25T00:40:33.852Z,5.10
2023-04-25T00:43:39.873Z,5.16
2023-04-25T00:46:45.712Z,5.14
2023-04-25T00:49:50.839Z,5.16
2023-04-25T00:52:56.469Z,5.15
2023-04-25T00:56:03.108Z,5.08
2023-04-25T00:59:09.023Z,5.08
2023-04-25T01:02:14.253Z,5.13
2023-04-25T01:05:19.941Z,5.22
2023-04-25T01:08:27.504Z,5.09
2023-04-25T01:11:34.144Z,5.06
2023-04-25T01:14:39.175Z,5.03
2023-04-25T01:17:45.230Z,5.00
2023-04-25T01:20:51.165Z,5.07
2023-04-25T01:23:58.298Z,5.02
2023-04-25T01:27:04.094Z,5.06
2023-04-25T01:30:10.562Z,4.97
2023-04-25T01:33:17.455Z,4.97
2023-04-25T01:36:23.373Z,5.00
2023-04-25T01:39:29.811Z,4.94
2023-04-25T01:42:35.354Z,5.01
2023-04-25T01:45:42.323Z,4.95
2023-04-25T01:48:48.997Z,5.10
2023-04-25T01:51:54.140Z,5.17
2023-04-25T01:55:03.059Z,5.25
2023-04-25T01:58:14.222Z,5.21
2023-04-25T02:01:39.183Z,5.15
2023-04-25T02:04:58.747Z,5.07
2023-04-25T02:08:06.898Z,5.00
2023-04-25T02:11:14.855Z,5.05
2023-04-25T02:14:26.035Z,5.08
2023-04-25T02:17:41.725Z,5.07
2023-04-25T02:20:47.379Z,4.94
2023-04-25T02:23:53.349Z,5.05
2023-04-25T02:27:00.456Z,4.90
2023-04-25T02:30:07.928Z,4.97
2023-04-25T02:33:12.974Z,5.04
2023-04-25T02:36:18.308Z,4.86
2023-04-25T02:39:23.381Z,4.95
2023-04-25T02:42:29.821Z,4.91
2023-04-25T02:45:36.086Z,4.94
2023-04-25T02:48:41.314Z,4.86
2023-04-25T02:51:46.336Z,4.86
2023-04-25T02:54:51.753Z,4.81
2023-04-25T02:57:58.242Z,4.91
2023-04-25T03:01:15.400Z,4.82
2023-04-25T03:04:21.996Z,4.70
2023-04-25T03:07:27.318Z,4.73
2023-04-25T03:10:32.345Z,4.83
2023-04-25T03:13:43.434Z,4.81
2023-04-25T03:16:49.772Z,4.79
2023-04-25T03:19:56.252Z,4.75
2023-04-25T03:23:01.487Z,4.94
2023-04-25T03:26:08.203Z,4.89
2023-04-25T03:29:14.687Z,4.76
2023-04-25T03:32:21.860Z,4.77
2023-04-25T03:35:27.218Z,4.84
2023-04-25T03:38:33.477Z,4.85
2023-04-25T03:41:38.576Z,4.76
2023-04-25T03:44:51.468Z,4.79
2023-04-25T03:47:56.637Z,4.90
2023-04-25T03:51:01.972Z,4.86
2023-04-25T03:54:08.751Z,4.77
2023-04-25T03:57:31.677Z,4.68
2023-04-25T04:00:39.329Z,4.72
2023-04-25T04:03:44.929Z,4.66
2023-04-25T04:06:50.712Z,4.61
2023-04-25T04:10:02.298Z,4.58
2023-04-25T04:13:15.512Z,4.65
2023-04-25T04:16:22.241Z,4.71
2023-04-25T04:19:28.720Z,4.70
2023-04-25T04:23:03.731Z,4.80
2023-04-25T04:26:09.778Z,4.82
2023-04-25T04:29:50.305Z,4.75
2023-04-25T04:33:04.896Z,4.75
2023-04-25T04:36:11.335Z,4.89
2023-04-25T04:39:16.896Z,4.80
2023-04-25T04:42:34.088Z,4.94
2023-04-25T04:46:06.100Z,4.96
2023-04-25T04:49:13.376Z,4.98
2023-04-25T04:52:43.986Z,5.00
2023-04-25T04:56:15.376Z,4.90
2023-04-25T04:59:33.849Z,4.95
2023-04-25T05:02:42.005Z,5.04
2023-04-25T05:06:09.937Z,5.03
2023-04-25T05:09:50.474Z,5.08
2023-04-25T05:13:21.829Z,5.06
2023-04-25T05:16:46.084Z,5.15
2023-04-25T05:20:29.511Z,5.07
2023-04-25T05:23:56.796Z,5.14
2023-04-25T05:27:20.689Z,5.16
2023-04-25T05:30:44.622Z,5.11
2023-04-25T05:33:54.995Z,5.27
2023-04-25T05:37:01.445Z,5.14
2023-04-25T05:40:10.694Z,5.22
2023-04-25T05:43:24.726Z,5.26
2023-04-25T05:46:39.478Z,5.37
2023-04-25T05:50:13.069Z,5.31
2023-04-25T05:53:38.581Z,5.33
2023-04-25T05:56:46.123Z,5.36
2023-04-25T05:59:51.220Z,5.37
2023-04-25T06:02:57.164Z,5.45
2023-04-25T06:06:02.609Z,5.45
2023-04-25T06:09:08.708Z,5.61
2023-04-25T06:12:15.169Z,5.47
2023-04-25T06:18:28.596Z,5.68
2023-04-25T06:21:33.999Z,5.53
2023-04-25T06:24:39.165Z,5.55
2023-04-25T06:27:45.679Z,5.68
2023-04-25T06:30:51.611Z,5.61
2023-04-25T06:33:58.183Z,5.59
2023-04-25T06:37:05.477Z,5.54
2023-04-25T06:40:12.401Z,5.59
2023-04-25T06:43:19.010Z,5.69
2023-04-25T06:46:42.905Z,5.74
2023-04-25T06:49:48.018Z,5.70
2023-04-25T06:52:53.572Z,5.78
2023-04-25T06:56:00.242Z,5.81
2023-04-25T06:59:15.363Z,5.81
2023-04-25T07:02:23.499Z,5.84
2023-04-25T07:05:31.665Z,6.00
2023-04-25T07:08:37.087Z,6.02
2023-04-25T07:11:42.162Z,6.05
2023-04-25T07:14:48.787Z,6.02
2023-04-25T07:17:54.269Z,6.01
2023-04-25T07:20:59.544Z,5.95
2023-04-25T07:24:05.069Z,6.03
2023-04-25T07:27:13.938Z,6.02
2023-04-25T07:30:32.314Z,6.11
2023-04-25T07:33:37.720Z,6.14
2023-04-25T07:36:43.015Z,6.25
2023-04-25T07:39:48.205Z,6.20
2023-04-25T07:42:53.323Z,6.20
2023-04-25T07:46:07.991Z,6.29
2023-04-25T07:49:14.673Z,6.53
2023-04-25T07:52:22.511Z,6.61
2023-04-25T07:55:32.903Z,6.61
2023-04-25T07:58:46.817Z,6.56
2023-04-25T08:01:55.406Z,6.68
2023-04-25T08:05:01.236Z,6.62
2023-04-25T08:08:07.697Z,6.76
2023-04-25T08:11:13.135Z,6.82
2023-04-25T08:14:18.880Z,6.82
2023-04-25T08:17:25.827Z,6.97
2023-04-25T08:20:31.549Z,6.92
2023-04-25T08:23:39.352Z,7.01
2023-04-25T08:26:55.051Z,7.13
2023-04-25T08:30:04.078Z,7.07
2023-04-25T08:33:12.418Z,7.14
2023-04-25T08:36:41.059Z,7.19
2023-04-25T08:40:08.172Z,7.04
2023-04-25T08:43:23.991Z,7.06
2023-04-25T08:46:29.056Z,6.95
2023-04-25T08:50:07.739Z,7.00
2023-04-25T08:53:19.852Z,7.06
2023-04-25T08:56:26.100Z,7.23
2023-04-25T08:59:32.005Z,7.29
2023-04-25T09:02:37.976Z,7.35
2023-04-25T09:05:47.748Z,7.71
2023-04-25T09:08:54.855Z,7.66
2023-04-25T09:12:00.661Z,7.73
2023-04-25T09:15:12.398Z,7.59
2023-04-25T09:18:37.068Z,7.87
2023-04-25T09:21:43.568Z,7.84
2023-04-25T09:24:49.978Z,8.02
2023-04-25T09:27:57.109Z,8.10
2023-04-25T09:31:07.144Z,8.07
2023-04-25T09:34:19.138Z,8.22
2023-04-25T09:37:33.481Z,8.35
2023-04-25T09:40:46.346Z,8.52
2023-04-25T09:44:02.764Z,8.57
2023-04-25T09:47:16.173Z,8.61
2023-04-25T09:50:25.662Z,8.38
2023-04-25T09:53:42.182Z,8.40
2023-04-25T09:56:56.890Z,8.37
2023-04-25T10:00:06.254Z,8.48
2023-04-25T10:03:20.976Z,8.33
2023-04-25T10:06:51.614Z,8.48
2023-04-25T10:10:02.942Z,8.73
2023-04-25T10:13:09.256Z,8.68
2023-04-25T10:16:14.606Z,8.53
2023-04-25T10:19:19.985Z,8.75
2023-04-25T10:22:32.663Z,8.96
2023-04-25T10:29:45.602Z,9.14
2023-04-25T10:32:51.962Z,8.96
2023-04-25T10:36:01.141Z,8.97
2023-04-25T10:39:09.817Z,9.06
2023-04-25T10:42:16.494Z,9.22
2023-04-25T10:45:22.027Z,9.27
2023-04-25T10:48:30.474Z,9.33
2023-04-25T10:55:02.595Z,9.25
2023-04-25T10:58:09.208Z,9.31
2023-04-25T11:01:15.852Z,9.63
2023-04-25T11:04:25.046Z,9.82
2023-04-25T11:07:37.588Z,9.62
2023-04-25T11:10:43.335Z,9.57
2023-04-25T11:13:52.469Z,9.71
2023-04-25T11:16:59.648Z,9.74
2023-04-25T11:20:10.426Z,9.81
2023-04-25T11:23:15.665Z,9.96
2023-04-25T11:26:22.517Z,9.92
2023-04-25T11:29:29.925Z,9.80
2023-04-25T11:32:37.494Z,9.90
2023-04-25T11:35:43.737Z,9.91
2023-04-25T11:38:49.110Z,9.83
2023-04-25T11:41:54.400Z,9.99
2023-04-25T11:45:01.354Z,10.03
2023-04-25T11:48:07.035Z,10.18
2023-04-25T11:51:12.931Z,10.31
2023-04-25T11:54:18.525Z,10.10
2023-04-25T11:57:23.727Z,10.24
2023-04-25T12:00:30.481Z,10.13
2023-04-25T12:03:36.693Z,10.17
2023-04-25T12:06:42.984Z,10.31
2023-04-25T12:09:55.050Z,10.15
2023-04-25T12:13:00.252Z,10.30
2023-04-25T12:16:07.371Z,10.34
2023-04-25T12:19:16.966Z,10.40
2023-04-25T12:22:23.594Z,10.52
2023-04-25T12:25:39.371Z,10.54
2023-04-25T12:28:49.632Z,10.46
2023-04-25T12:31:57.258Z,10.52
2023-04-25T12:35:02.432Z,10.47
2023-04-25T12:38:07.550Z,10.49
2023-04-25T12:41:15.592Z,10.47
2023-04-25T12:44:20.684Z,10.42
2023-04-25T12:47:27.270Z,10.48
2023-04-25T12:50:32.720Z,10.40
2023-04-25T12:53:38.689Z,10.36
2023-04-25T12:56:44.487Z,10.46
2023-04-25T12:59:49.544Z,10.48
2023-04-25T13:02:56.485Z,10.55
2023-04-25T13:06:02.090Z,10.64
2023-04-25T13:09:07.785Z,10.71
2023-04-25T13:12:14.836Z,10.78
2023-04-25T13:15:20.061Z,10.70
2023-04-25T13:18:27.504Z,10.77
2023-04-25T13:21:34.190Z,10.97
2023-04-25T13:24:39.247Z,11.12
2023-04-25T13:27:45.340Z,11.03
2023-04-25T13:30:50.701Z,10.94
2023-04-25T13:33:57.224Z,10.81
2023-04-25T13:37:02.348Z,10.84
2023-04-25T13:40:10.585Z,10.86
2023-04-25T13:43:15.670Z,10.89
2023-04-25T13:46:40.887Z,10.93
2023-04-25T13:49:47.184Z,10.82
2023-04-25T13:52:52.536Z,10.84
2023-04-25T13:55:57.558Z,10.84
2023-04-25T13:59:02.609Z,10.95
2023-04-25T14:02:07.702Z,10.95
2023-04-25T14:05:15.437Z,10.97
2023-04-25T14:08:21.398Z,10.98
2023-04-25T14:11:26.542Z,11.27
2023-04-25T14:14:31.826Z,11.51
2023-04-25T14:17:37.085Z,11.52
2023-04-25T14:20:43.592Z,11.62
2023-04-25T14:23:49.200Z,11.49
2023-04-25T14:26:54.633Z,11.69
2023-04-25T14:29:59.786Z,11.60
2023-04-25T14:33:05.298Z,11.77
2023-04-25T14:36:12.925Z,11.72
2023-04-25T14:39:18.293Z,11.72
2023-04-25T14:42:23.900Z,11.85
2023-04-25T14:45:29.287Z,11.81
2023-04-25T14:48:34.517Z,11.82
2023-04-25T14:51:41.181Z,11.59
2023-04-25T14:54:46.366Z,11.45
2023-04-25T14:57:51.364Z,11.64
2023-04-25T15:00:57.740Z,11.54
2023-04-25T15:04:03.116Z,11.29
2023-04-25T15:07:12.211Z,11.34
2023-04-25T15:10:17.803Z,11.32
2023-04-25T15:13:22.890Z,11.02
2023-04-25T15:16:28.066Z,10.97
2023-04-25T15:19:33.293Z,10.64
2023-04-25T15:22:39.787Z,10.53
2023-04-25T15:25:44.810Z,10.32
2023-04-25T15:28:50.316Z,10.44
2023-04-25T15:31:55.528Z,10.30
2023-04-25T15:35:00.583Z,10.08
2023-04-25T15:38:07.279Z,9.98
2023-04-25T15:41:15.220Z,9.93
2023-04-25T15:44:20.392Z,9.86
2023-04-25T15:47:25.687Z,9.69
2023-04-25T15:50:30.876Z,9.69
2023-04-25T15:53:37.477Z,9.50
2023-04-25T15:56:42.610Z,9.64
2023-04-25T15:59:48.653Z,9.79
2023-04-25T16:02:53.973Z,9.93
2023-04-25T16:05:59.652Z,9.62
2023-04-25T16:09:06.758Z,9.59
2023-04-25T16:12:13.792Z,9.87
2023-04-25T16:15:19.896Z,9.74
2023-04-25T16:18:25.147Z,9.90
2023-04-25T16:21:30.642Z,9.92
2023-04-25T16:24:37.271Z,9.89
2023-04-25T16:27:42.321Z,9.78
2023-04-25T16:30:47.432Z,9.72
2023-04-25T16:33:52.875Z,9.76
2023-04-25T16:36:58.654Z,9.76
2023-04-25T16:40:09.018Z,9.77
2023-04-25T16:43:14.171Z,9.45
2023-04-25T16:46:20.426Z,9.59
2023-04-25T16:49:26.610Z,9.62
2023-04-25T16:52:31.736Z,9.52
2023-04-25T16:55:38.308Z,9.55
2023-04-25T16:58:43.460Z,9.57
2023-04-25T17:01:48.563Z,9.64
2023-04-25T17:04:53.826Z,9.52
2023-04-25T17:07:59.069Z,9.34
2023-04-25T17:11:06.089Z,9.47
2023-04-25T17:14:13.003Z,9.43
2023-04-25T17:17:18.928Z,9.32
2023-04-25T17:20:24.265Z,9.43
2023-04-25T17:23:31.580Z,9.28
2023-04-25T17:26:38.245Z,9.33
2023-04-25T17:29:43.316Z,9.15
2023-04-25T17:32:48.449Z,9.13
2023-04-25T17:35:54.332Z,9.13
2023-04-25T17:38:59.407Z,9.02
2023-04-25T17:42:07.210Z,9.08
2023-04-25T17:45:13.833Z,9.17
2023-04-25T17:48:19.034Z,9.14
2023-04-25T17:51:24.199Z,9.05
2023-04-25T17:54:29.665Z,9.16
2023-04-25T17:57:36.480Z,9.13
2023-04-25T18:00:41.814Z,8.97
2023-04-25T18:03:49.354Z,8.93
2023-04-25T18:06:55.607Z,8.99
2023-04-25T18:10:00.766Z,8.89
2023-04-25T18:13:09.158Z,8.90
2023-04-25T18:16:14.617Z,8.95
2023-04-25T18:19:22.667Z,8.74
2023-04-25T18:22:27.897Z,8.79
2023-04-25T18:25:33.783Z,8.88
2023-04-25T18:28:40.404Z,8.69
2023-04-25T18:31:46.706Z,8.69
2023-04-25T18:34:53.415Z,8.67
2023-04-25T18:37:59.168Z,8.64
2023-04-25T18:41:15.499Z,8.51
2023-04-25T18:44:32.286Z,8.64
2023-04-25T18:47:37.401Z,8.54
2023-04-25T18:50:43.996Z,8.52
2023-04-25T18:53:49.136Z,8.53
2023-04-25T18:56:55.742Z,8.56
2023-04-25T19:00:06.733Z,8.54
2023-04-25T19:03:14.604Z,8.63
2023-04-25T19:06:19.732Z,8.43
2023-04-25T19:09:25.323Z,8.50
2023-04-25T19:12:31.364Z,8.48
2023-04-25T19:15:38.005Z,8.34
2023-04-25T19:18:43.093Z,8.17
2023-04-25T19:21:50.380Z,8.13
2023-04-25T19:25:03.095Z,8.13
2023-04-25T19:28:17.919Z,8.09
2023-04-25T19:31:24.514Z,8.05
2023-04-25T19:34:29.698Z,7.98
2023-04-25T19:37:34.946Z,8.02
2023-04-25T19:40:40.225Z,8.00
2023-04-25T19:43:45.393Z,7.85
2023-04-25T19:46:51.622Z,7.86
2023-04-25T19:49:56.749Z,7.88
2023-04-25T19:53:02.173Z,7.79
2023-04-25T19:56:08.117Z,7.85
2023-04-25T19:59:13.421Z,7.87
2023-04-25T20:02:21.504Z,7.59
2023-04-25T20:05:28.069Z,7.57
2023-04-25T20:08:33.247Z,7.60
2023-04-25T20:11:38.430Z,7.64
2023-04-25T20:14:44.050Z,7.66
2023-04-25T20:17:50.561Z,7.53
2023-04-25T20:20:56.626Z,7.56
2023-04-25T20:24:02.391Z,7.64
2023-04-25T20:27:07.615Z,7.43
2023-04-25T20:30:13.945Z,7.44
2023-04-25T20:33:22.038Z,7.58
2023-04-25T20:36:27.546Z,7.53
2023-04-25T20:39:33.413Z,7.47
2023-04-25T20:42:38.994Z,7.56
2023-04-25T20:45:44.594Z,7.58
2023-04-25T20:48:52.704Z,7.60
2023-04-25T20:51:58.123Z,7.63
2023-04-25T20:55:03.445Z,7.53
2023-04-25T20:58:08.590Z,7.58
2023-04-25T21:01:13.824Z,7.58
2023-04-25T21:04:20.919Z,7.51
2023-04-25T21:07:26.754Z,7.51
2023-04-25T21:10:32.234Z,7.50
2023-04-25T21:13:37.391Z,7.55
2023-04-25T21:16:43.826Z,7.49
2023-04-25T21:19:50.363Z,7.39
2023-04-25T21:22:55.837Z,7.53
2023-04-25T21:26:00.994Z,7.49
2023-04-25T21:29:06.154Z,7.46
2023-04-25T21:32:16.666Z,7.47
2023-04-25T21:35:23.725Z,7.42
2023-04-25T21:38:28.809Z,7.51
2023-04-25T21:41:34.011Z,7.38
2023-04-25T21:44:40.139Z,7.30
2023-04-25T21:47:46.734Z,7.53
2023-04-25T21:50:53.247Z,7.61
2023-04-25T21:54:00.610Z,7.36
2023-04-25T21:57:05.826Z,7.27
2023-04-25T22:00:25.128Z,7.43
2023-04-25T22:03:30.552Z,7.52
2023-04-25T22:06:37.713Z,7.53
2023-04-25T22:09:53.901Z,7.45
2023-04-25T22:13:00.405Z,7.43
2023-04-25T22:16:06.315Z,7.53
2023-04-25T22:19:11.705Z,7.46
2023-04-25T22:22:18.352Z,7.44
2023-04-25T22:25:24.002Z,7.38
2023-04-25T22:28:29.297Z,7.28
2023-04-25T22:31:35.133Z,7.30
2023-04-25T22:34:43.232Z,6.97
2023-04-25T22:37:49.742Z,6.92
2023-04-25T22:40:54.782Z,6.95
2023-04-25T22:43:59.924Z,6.96
2023-04-25T22:47:05.082Z,6.92
2023-04-25T22:50:14.789Z,6.97
2023-04-25T22:53:21.346Z,7.04
2023-04-25T22:56:27.095Z,6.92
2023-04-25T22:59:32.294Z,6.92
2023-04-25T23:02:38.222Z,6.93
2023-04-25T23:05:43.479Z,6.79
2023-04-25T23:08:50.720Z,6.80
2023-04-25T23:11:57.400Z,6.84
2023-04-25T23:15:03.091Z,6.91
2023-04-25T23:18:09.015Z,6.86
2023-04-25T23:21:14.814Z,6.73
2023-04-25T23:24:21.419Z,6.55
2023-04-25T23:27:26.895Z,6.60
2023-04-25T23:30:31.997Z,6.70
2023-04-25T23:33:37.317Z,6.76
2023-04-25T23:36:42.779Z,6.63
2023-04-25T23:39:52.587Z,6.84
2023-04-25T23:42:58.041Z,6.83
2023-04-25T23:46:03.250Z,6.91
2023-04-25T23:49:13.673Z,6.88
2023-04-25T23:52:18.786Z,6.88
2023-04-25T23:55:26.132Z,6.84
2023-04-25T23:58:30.916Z,6.91
